createdAt,value
2023-02-19T00:00:09.514Z,8.71
2023-02-19T00:02:47.931Z,8.55
2023-02-19T00:05:19.578Z,8.62
2023-02-19T00:07:51.193Z,8.50
2023-02-19T00:10:22.859Z,7.96
2023-02-19T00:12:54.461Z,8.58
2023-02-19T00:15:26.142Z,8.68
2023-02-19T00:17:57.790Z,8.28
2023-02-19T00:20:29.415Z,8.27
2023-02-19T00:23:01.129Z,8.20
2023-02-19T00:25:37.059Z,8.38
2023-02-19T00:28:08.663Z,8.26
2023-02-19T00:30:40.372Z,8.39
2023-02-19T00:33:11.972Z,8.39
2023-02-19T00:35:43.586Z,8.40
2023-02-19T00:38:15.199Z,8.39
2023-02-19T00:40:46.789Z,8.23
2023-02-19T00:43:19.468Z,8.26
2023-02-19T00:45:51.105Z,8.22
2023-02-19T00:48:22.757Z,8.22
2023-02-19T00:50:54.375Z,8.19
2023-02-19T00:53:26.213Z,8.28
2023-02-19T00:55:57.843Z,8.17
2023-02-19T00:58:29.594Z,8.38
2023-02-19T01:01:01.342Z,8.23
2023-02-19T01:03:37.433Z,8.33
2023-02-19T01:06:10.798Z,8.31
2023-02-19T01:08:43.198Z,7.94
2023-02-19T01:11:16.082Z,8.01
2023-02-19T01:13:47.936Z,8.27
2023-02-19T01:16:22.904Z,8.47
2023-02-19T01:18:54.640Z,8.37
2023-02-19T01:21:27.749Z,8.36
2023-02-19T01:23:59.530Z,8.21
2023-02-19T01:26:33.277Z,8.20
2023-02-19T01:29:04.897Z,8.18
2023-02-19T01:31:36.802Z,8.32
2023-02-19T01:34:11.126Z,8.23
2023-02-19T01:36:42.755Z,8.11
2023-02-19T01:39:14.443Z,7.76
2023-02-19T01:41:46.057Z,7.89
2023-02-19T01:44:17.600Z,8.05
2023-02-19T01:46:49.210Z,8.13
2023-02-19T01:49:29.263Z,8.24
2023-02-19T01:52:13.886Z,8.18
2023-02-19T01:54:49.709Z,8.24
2023-02-19T01:57:28.794Z,8.17
2023-02-19T02:00:15.774Z,8.16
2023-02-19T02:02:53.097Z,8.16
2023-02-19T02:05:31.205Z,7.92
2023-02-19T02:08:04.329Z,8.13
2023-02-19T02:10:36.332Z,8.24
2023-02-19T02:13:07.962Z,7.94
2023-02-19T02:15:51.964Z,7.98
2023-02-19T02:18:46.009Z,8.06
2023-02-19T02:21:46.739Z,8.08
2023-02-19T02:24:45.056Z,7.84
2023-02-19T02:27:28.252Z,8.01
2023-02-19T02:30:12.775Z,8.03
2023-02-19T02:32:53.625Z,7.82
2023-02-19T02:35:37.177Z,8.06
2023-02-19T02:38:13.520Z,8.01
2023-02-19T02:40:46.361Z,8.16
2023-02-19T02:43:18.797Z,8.23
2023-02-19T02:45:50.401Z,8.12
2023-02-19T02:48:45.805Z,8.02
2023-02-19T02:51:25.270Z,8.03
2023-02-19T02:54:12.167Z,8.20
2023-02-19T02:56:48.181Z,7.98
2023-02-19T02:59:25.076Z,7.82
2023-02-19T03:02:17.648Z,8.27
2023-02-19T03:04:52.429Z,8.38
2023-02-19T03:07:29.710Z,8.63
2023-02-19T03:10:07.107Z,8.51
2023-02-19T03:12:42.030Z,8.62
2023-02-19T03:15:17.257Z,8.27
2023-02-19T03:17:56.138Z,8.58
2023-02-19T03:20:31.633Z,8.35
2023-02-19T03:23:06.449Z,8.04
2023-02-19T03:25:39.878Z,8.38
2023-02-19T03:28:15.313Z,8.66
2023-02-19T03:30:53.593Z,8.66
2023-02-19T03:33:29.859Z,8.53
2023-02-19T03:36:07.717Z,8.94
2023-02-19T03:39:06.852Z,8.82
2023-02-19T03:42:02.610Z,8.71
2023-02-19T03:45:02.521Z,8.60
2023-02-19T03:47:58.106Z,8.66
2023-02-19T03:50:49.122Z,8.59
2023-02-19T03:53:37.922Z,8.65
2023-02-19T03:56:35.650Z,8.47
2023-02-19T03:59:17.281Z,8.39
2023-02-19T04:01:52.555Z,8.48
2023-02-19T04:04:37.639Z,8.60
2023-02-19T04:07:10.301Z,8.78
2023-02-19T04:09:49.314Z,8.78
2023-02-19T04:12:24.412Z,8.79
2023-02-19T04:15:05.593Z,8.02
2023-02-19T04:18:14.360Z,8.69
2023-02-19T04:20:48.609Z,8.80
2023-02-19T04:23:26.523Z,8.42
2023-02-19T04:26:01.198Z,8.41
2023-02-19T04:28:33.000Z,8.54
2023-02-19T04:31:04.765Z,8.38
2023-02-19T04:33:37.211Z,8.31
2023-02-19T04:36:10.606Z,8.33
2023-02-19T04:38:42.226Z,8.33
2023-02-19T04:41:13.820Z,8.20
2023-02-19T04:43:45.404Z,7.97
2023-02-19T04:46:17.227Z,8.11
2023-02-19T04:48:48.885Z,8.32
2023-02-19T04:51:20.601Z,8.23
2023-02-19T04:53:52.227Z,8.17
2023-02-19T04:56:24.307Z,8.12
2023-02-19T04:58:56.607Z,8.34
2023-02-19T05:01:28.560Z,8.27
2023-02-19T05:04:00.348Z,8.27
2023-02-19T05:06:31.940Z,7.85
2023-02-19T05:09:04.020Z,7.78
2023-02-19T05:11:35.662Z,7.30
2023-02-19T05:14:07.297Z,7.90
2023-02-19T05:16:38.902Z,7.72
2023-02-19T05:19:13.863Z,7.51
2023-02-19T05:21:45.488Z,7.57
2023-02-19T05:24:17.146Z,7.37
2023-02-19T05:26:48.741Z,7.61
2023-02-19T05:29:20.273Z,7.70
2023-02-19T05:31:51.991Z,7.49
2023-02-19T05:34:23.657Z,7.56
2023-02-19T05:36:55.346Z,7.40
2023-02-19T05:39:27.030Z,7.56
2023-02-19T05:41:58.646Z,7.70
2023-02-19T05:44:30.213Z,7.73
2023-02-19T05:47:01.853Z,7.45
2023-02-19T05:49:33.490Z,7.42
2023-02-19T05:52:05.380Z,7.61
2023-02-19T05:54:36.983Z,7.84
2023-02-19T05:57:08.542Z,7.85
2023-02-19T05:59:40.145Z,7.77
2023-02-19T06:02:11.845Z,7.85
2023-02-19T06:04:43.453Z,7.80
2023-02-19T06:07:15.017Z,8.05
2023-02-19T06:09:49.885Z,7.93
2023-02-19T06:12:21.478Z,7.87
2023-02-19T06:14:53.108Z,7.71
2023-02-19T06:17:24.746Z,7.88
2023-02-19T06:19:56.372Z,7.86
2023-02-19T06:22:28.144Z,7.55
2023-02-19T06:24:59.719Z,7.71
2023-02-19T06:27:31.388Z,7.94
2023-02-19T06:30:03.234Z,8.12
2023-02-19T06:32:34.987Z,8.20
2023-02-19T06:35:06.782Z,8.24
2023-02-19T06:37:38.415Z,8.18
2023-02-19T06:40:10.294Z,8.49
2023-02-19T06:42:41.997Z,8.50
2023-02-19T06:45:13.688Z,8.39
2023-02-19T06:47:45.245Z,8.54
2023-02-19T06:50:17.077Z,8.39
2023-02-19T06:52:48.673Z,8.66
2023-02-19T06:55:20.349Z,8.92
2023-02-19T06:57:52.005Z,8.76
2023-02-19T07:00:23.742Z,8.92
2023-02-19T07:02:55.280Z,8.87
2023-02-19T07:05:27.229Z,8.93
2023-02-19T07:07:58.838Z,8.86
2023-02-19T07:10:30.481Z,9.08
2023-02-19T07:13:02.107Z,9.59
2023-02-19T07:15:33.733Z,10.11
2023-02-19T07:18:05.523Z,10.55
2023-02-19T07:20:37.125Z,10.57
2023-02-19T07:23:09.414Z,10.81
2023-02-19T07:25:41.174Z,10.59
2023-02-19T07:28:12.840Z,10.33
2023-02-19T07:30:44.579Z,10.62
2023-02-19T07:33:16.324Z,10.84
2023-02-19T07:35:50.305Z,11.08
2023-02-19T07:38:24.035Z,10.80
2023-02-19T07:40:58.801Z,10.91
2023-02-19T07:43:34.017Z,10.31
2023-02-19T07:46:06.723Z,10.62
2023-02-19T07:48:40.118Z,10.65
2023-02-19T07:51:15.123Z,10.85
2023-02-19T07:53:47.823Z,10.85
2023-02-19T07:56:20.078Z,10.88
2023-02-19T07:58:51.700Z,11.05
2023-02-19T08:01:24.654Z,11.10
2023-02-19T08:03:56.247Z,11.17
2023-02-19T08:06:27.831Z,10.98
2023-02-19T08:08:59.475Z,11.18
2023-02-19T08:11:31.477Z,11.09
2023-02-19T08:14:03.125Z,10.79
2023-02-19T08:16:43.010Z,11.29
2023-02-19T08:19:15.084Z,11.34
2023-02-19T08:21:46.697Z,11.32
2023-02-19T08:24:18.253Z,11.45
2023-02-19T08:26:49.838Z,11.73
2023-02-19T08:29:21.489Z,12.14
2023-02-19T08:31:53.133Z,12.40
2023-02-19T08:34:24.748Z,12.67
2023-02-19T08:36:56.312Z,12.54
2023-02-19T08:39:27.910Z,12.64
2023-02-19T08:41:59.592Z,12.76
2023-02-19T08:44:32.713Z,12.84
2023-02-19T08:47:04.488Z,12.99
2023-02-19T08:49:36.072Z,12.46
2023-02-19T08:52:07.661Z,12.59
2023-02-19T08:54:39.203Z,13.30
2023-02-19T08:57:10.911Z,13.57
2023-02-19T08:59:42.484Z,13.62
2023-02-19T09:02:14.202Z,13.94
2023-02-19T09:04:45.878Z,14.25
2023-02-19T09:07:19.058Z,14.88
2023-02-19T09:09:50.595Z,20.56
2023-02-19T09:12:22.447Z,19.31
2023-02-19T09:14:54.012Z,18.63
2023-02-19T09:17:26.461Z,18.14
2023-02-19T09:19:58.040Z,20.38
2023-02-19T09:22:29.769Z,19.50
2023-02-19T09:25:01.755Z,18.41
2023-02-19T09:27:33.360Z,18.42
2023-02-19T09:30:05.317Z,22.28
2023-02-19T09:32:37.094Z,24.20
2023-02-19T09:35:08.683Z,24.38
2023-02-19T09:37:40.301Z,25.26
2023-02-19T09:40:12.791Z,25.85
2023-02-19T09:42:44.468Z,25.05
2023-02-19T09:45:24.231Z,26.48
2023-02-19T09:47:58.612Z,27.17
2023-02-19T09:50:39.153Z,27.68
2023-02-19T09:53:26.381Z,30.10
2023-02-19T09:55:59.763Z,27.84
2023-02-19T09:58:35.359Z,28.22
2023-02-19T10:01:11.204Z,28.08
2023-02-19T10:03:49.014Z,24.25
2023-02-19T10:06:23.646Z,24.38
2023-02-19T10:09:23.644Z,24.11
2023-02-19T10:11:58.141Z,23.00
2023-02-19T10:14:51.128Z,23.96
2023-02-19T10:17:26.807Z,25.31
2023-02-19T10:19:58.502Z,26.79
2023-02-19T10:22:35.060Z,26.24
2023-02-19T10:25:07.626Z,25.32
2023-02-19T10:27:39.314Z,24.23
2023-02-19T10:30:22.447Z,22.74
2023-02-19T10:33:04.180Z,23.02
2023-02-19T10:35:51.086Z,23.46
2023-02-19T10:38:39.139Z,25.74
2023-02-19T10:41:30.782Z,26.02
2023-02-19T10:44:14.046Z,25.40
2023-02-19T10:46:49.752Z,27.02
2023-02-19T10:49:27.432Z,26.08
2023-02-19T10:52:10.467Z,26.13
2023-02-19T10:54:42.020Z,26.30
2023-02-19T10:57:19.511Z,24.94
2023-02-19T11:00:00.187Z,24.95
2023-02-19T11:02:31.883Z,26.83
2023-02-19T11:05:12.002Z,24.56
2023-02-19T11:07:56.335Z,25.72
2023-02-19T11:10:33.534Z,26.85
2023-02-19T11:13:13.593Z,27.56
2023-02-19T11:15:53.300Z,27.70
2023-02-19T11:18:31.766Z,27.15
2023-02-19T11:21:07.853Z,28.00
2023-02-19T11:23:47.090Z,27.32
2023-02-19T11:26:24.031Z,25.48
2023-02-19T11:29:01.029Z,26.39
2023-02-19T11:31:33.774Z,26.52
2023-02-19T11:34:14.354Z,28.05
2023-02-19T11:36:46.033Z,28.32
2023-02-19T11:39:17.602Z,27.61
2023-02-19T11:42:04.043Z,26.54
2023-02-19T11:45:01.839Z,23.96
2023-02-19T11:47:45.835Z,22.89
2023-02-19T11:50:53.429Z,22.00
2023-02-19T11:53:31.815Z,20.08
2023-02-19T11:56:18.173Z,21.97
2023-02-19T11:59:01.435Z,22.71
2023-02-19T12:01:54.251Z,24.02
2023-02-19T12:05:01.261Z,25.50
2023-02-19T12:07:51.145Z,25.47
2023-02-19T12:10:38.715Z,24.77
2023-02-19T12:13:13.407Z,26.32
2023-02-19T12:16:14.420Z,24.86
2023-02-19T12:19:37.247Z,23.72
2023-02-19T12:22:39.638Z,22.39
2023-02-19T12:26:02.570Z,23.42
2023-02-19T12:28:58.651Z,23.05
2023-02-19T12:31:45.087Z,23.51
2023-02-19T12:34:35.132Z,23.35
2023-02-19T12:37:43.764Z,22.90
2023-02-19T12:40:15.484Z,24.63
2023-02-19T12:43:11.022Z,22.83
2023-02-19T12:46:01.801Z,24.04
2023-02-19T12:48:47.330Z,23.87
2023-02-19T12:51:25.029Z,25.79
2023-02-19T12:54:43.313Z,24.82
2023-02-19T12:57:26.964Z,25.04
2023-02-19T13:00:18.504Z,23.91
2023-02-19T13:03:19.013Z,24.24
2023-02-19T13:06:27.259Z,22.30
2023-02-19T13:09:06.717Z,23.41
2023-02-19T13:11:48.541Z,22.38
2023-02-19T13:14:25.962Z,22.14
2023-02-19T13:17:02.790Z,22.01
2023-02-19T13:19:36.508Z,22.51
2023-02-19T13:22:46.094Z,22.33
2023-02-19T13:25:20.669Z,22.48
2023-02-19T13:28:13.050Z,21.77
2023-02-19T13:30:56.936Z,22.26
2023-02-19T13:33:28.527Z,21.41
2023-02-19T13:36:10.480Z,21.09
2023-02-19T13:38:47.220Z,21.22
2023-02-19T13:41:29.874Z,21.19
2023-02-19T13:44:05.773Z,21.84
2023-02-19T13:46:46.113Z,21.80
2023-02-19T13:49:29.541Z,22.65
2023-02-19T13:52:04.170Z,21.62
2023-02-19T13:54:36.527Z,21.47
2023-02-19T13:57:31.167Z,20.98
2023-02-19T14:00:41.346Z,20.07
2023-02-19T14:03:28.978Z,19.46
2023-02-19T14:06:05.081Z,20.10
2023-02-19T14:08:57.801Z,19.09
2023-02-19T14:11:41.358Z,20.16
2023-02-19T14:14:34.069Z,19.38
2023-02-19T14:17:08.525Z,19.61
2023-02-19T14:19:44.356Z,20.11
2023-02-19T14:22:46.849Z,20.14
2023-02-19T14:25:27.488Z,21.04
2023-02-19T14:28:11.165Z,20.51
2023-02-19T14:30:55.886Z,21.44
2023-02-19T14:33:35.064Z,19.04
2023-02-19T14:36:16.935Z,18.61
2023-02-19T14:38:52.889Z,19.68
2023-02-19T14:41:27.388Z,18.48
2023-02-19T14:44:02.168Z,17.58
2023-02-19T14:46:43.026Z,18.29
2023-02-19T14:49:41.916Z,20.61
2023-02-19T14:52:44.400Z,21.84
2023-02-19T14:55:35.767Z,24.46
2023-02-19T14:58:18.537Z,25.97
2023-02-19T15:00:50.120Z,24.15
2023-02-19T15:03:25.840Z,25.69
2023-02-19T15:06:06.087Z,26.79
2023-02-19T15:08:46.648Z,24.75
2023-02-19T15:11:25.557Z,25.63
2023-02-19T15:14:08.563Z,24.46
2023-02-19T15:16:40.401Z,23.77
2023-02-19T15:19:17.158Z,22.28
2023-02-19T15:21:49.416Z,21.55
2023-02-19T15:24:21.286Z,20.63
2023-02-19T15:26:55.112Z,19.48
2023-02-19T15:29:27.746Z,17.62
2023-02-19T15:32:01.202Z,17.13
2023-02-19T15:34:33.226Z,16.28
2023-02-19T15:37:08.956Z,15.71
2023-02-19T15:39:53.070Z,15.88
2023-02-19T15:42:29.486Z,15.73
2023-02-19T15:45:16.273Z,15.91
2023-02-19T15:48:08.233Z,15.45
2023-02-19T15:50:47.591Z,15.37
2023-02-19T15:53:24.429Z,15.82
2023-02-19T15:56:33.472Z,15.79
2023-02-19T15:59:34.017Z,15.80
2023-02-19T16:02:13.485Z,15.58
2023-02-19T16:04:46.037Z,14.95
2023-02-19T16:07:26.968Z,14.07
2023-02-19T16:10:18.621Z,13.71
2023-02-19T16:12:58.592Z,13.52
2023-02-19T16:15:32.226Z,13.58
2023-02-19T16:18:04.823Z,14.15
2023-02-19T16:20:36.539Z,14.81
2023-02-19T16:23:18.444Z,15.01
2023-02-19T16:25:59.220Z,15.16
2023-02-19T16:28:40.273Z,15.15
2023-02-19T16:31:14.263Z,14.21
2023-02-19T16:33:48.699Z,13.87
2023-02-19T16:36:29.414Z,13.88
2023-02-19T16:39:07.180Z,14.21
2023-02-19T16:41:45.041Z,14.07
2023-02-19T16:44:27.591Z,14.28
2023-02-19T16:47:12.581Z,13.58
2023-02-19T16:49:44.500Z,13.19
2023-02-19T16:52:16.502Z,13.05
2023-02-19T16:54:49.336Z,12.63
2023-02-19T16:57:21.383Z,12.48
2023-02-19T16:59:53.224Z,12.66
2023-02-19T17:02:25.924Z,12.48
2023-02-19T17:04:57.642Z,12.37
2023-02-19T17:07:29.477Z,12.01
2023-02-19T17:10:01.075Z,12.05
2023-02-19T17:12:33.193Z,12.04
2023-02-19T17:15:05.051Z,11.95
2023-02-19T17:17:36.624Z,11.60
2023-02-19T17:20:17.348Z,11.53
2023-02-19T17:22:48.962Z,11.47
2023-02-19T17:25:20.985Z,11.61
2023-02-19T17:27:52.571Z,11.33
2023-02-19T17:30:29.704Z,11.14
2023-02-19T17:33:01.741Z,11.22
2023-02-19T17:35:33.368Z,11.21
2023-02-19T17:38:04.969Z,11.12
2023-02-19T17:40:36.786Z,11.13
2023-02-19T17:43:08.558Z,11.12
2023-02-19T17:45:40.316Z,11.16
2023-02-19T17:48:14.142Z,11.14
2023-02-19T17:50:45.761Z,10.99
2023-02-19T17:53:17.330Z,10.82
2023-02-19T17:55:49.026Z,10.71
2023-02-19T17:58:20.618Z,10.62
2023-02-19T18:00:52.535Z,10.57
2023-02-19T18:03:24.654Z,10.53
2023-02-19T18:05:56.946Z,10.51
2023-02-19T18:08:28.857Z,10.32
2023-02-19T18:11:00.445Z,10.25
2023-02-19T18:13:32.053Z,10.31
2023-02-19T18:16:05.663Z,10.34
2023-02-19T18:18:37.662Z,10.44
2023-02-19T18:21:10.842Z,10.26
2023-02-19T18:23:43.269Z,10.26
2023-02-19T18:26:20.035Z,10.28
2023-02-19T18:28:51.678Z,10.31
2023-02-19T18:31:23.359Z,10.33
2023-02-19T18:33:55.130Z,10.36
2023-02-19T18:36:26.725Z,10.47
2023-02-19T18:38:58.300Z,10.05
2023-02-19T18:41:30.150Z,10.12
2023-02-19T18:44:01.907Z,10.05
2023-02-19T18:46:33.831Z,10.13
2023-02-19T18:49:05.509Z,10.22
2023-02-19T18:51:37.098Z,10.01
2023-02-19T18:54:08.797Z,10.33
2023-02-19T18:56:44.798Z,10.08
2023-02-19T18:59:16.885Z,10.01
2023-02-19T19:01:49.210Z,9.97
2023-02-19T19:04:21.082Z,9.97
2023-02-19T19:06:53.007Z,10.17
2023-02-19T19:09:24.683Z,10.50
2023-02-19T19:11:56.355Z,10.43
2023-02-19T19:14:28.095Z,10.09
2023-02-19T19:16:59.952Z,10.37
2023-02-19T19:19:31.667Z,10.09
2023-02-19T19:22:06.260Z,10.17
2023-02-19T19:24:38.223Z,10.11
2023-02-19T19:27:09.951Z,10.21
2023-02-19T19:29:41.690Z,9.99
2023-02-19T19:32:15.402Z,10.04
2023-02-19T19:34:47.096Z,10.10
2023-02-19T19:37:18.815Z,9.71
2023-02-19T19:39:50.944Z,9.69
2023-02-19T19:42:31.516Z,9.50
2023-02-19T19:45:04.038Z,9.84
2023-02-19T19:47:35.760Z,9.74
2023-02-19T19:50:07.607Z,9.31
2023-02-19T19:52:39.293Z,9.65
2023-02-19T19:55:13.141Z,9.48
2023-02-19T19:57:48.559Z,9.49
2023-02-19T20:00:20.665Z,9.73
2023-02-19T20:02:52.359Z,9.83
2023-02-19T20:05:24.086Z,10.06
2023-02-19T20:07:55.698Z,10.23
2023-02-19T20:10:27.546Z,9.97
2023-02-19T20:13:02.468Z,9.91
2023-02-19T20:15:34.208Z,10.20
2023-02-19T20:18:05.849Z,9.90
2023-02-19T20:20:37.874Z,10.21
2023-02-19T20:23:09.583Z,10.15
2023-02-19T20:25:41.395Z,9.83
2023-02-19T20:28:13.103Z,9.71
2023-02-19T20:30:44.831Z,9.54
2023-02-19T20:33:16.647Z,9.63
2023-02-19T20:35:48.285Z,9.30
2023-02-19T20:38:19.987Z,9.49
2023-02-19T20:40:51.605Z,9.55
2023-02-19T20:43:23.198Z,9.16
2023-02-19T20:45:54.823Z,9.47
2023-02-19T20:48:26.422Z,9.50
2023-02-19T20:50:58.042Z,9.07
2023-02-19T20:53:30.818Z,9.02
2023-02-19T20:56:02.488Z,8.96
2023-02-19T20:58:34.101Z,9.29
2023-02-19T21:01:05.778Z,9.32
2023-02-19T21:03:37.442Z,9.21
2023-02-19T21:06:08.995Z,9.57
2023-02-19T21:08:40.639Z,9.22
2023-02-19T21:11:12.268Z,9.51
2023-02-19T21:13:43.963Z,9.28
2023-02-19T21:16:15.946Z,8.81
2023-02-19T21:18:47.596Z,8.96
2023-02-19T21:21:21.077Z,9.42
2023-02-19T21:23:53.830Z,9.80
2023-02-19T21:26:33.499Z,9.40
2023-02-19T21:29:07.130Z,9.45
2023-02-19T21:31:42.621Z,8.79
2023-02-19T21:34:16.855Z,8.62
2023-02-19T21:36:48.797Z,8.85
2023-02-19T21:39:23.016Z,8.88
2023-02-19T21:41:54.644Z,8.83
2023-02-19T21:44:26.274Z,8.55
2023-02-19T21:46:57.909Z,8.34
2023-02-19T21:49:29.511Z,8.54
2023-02-19T21:52:01.149Z,8.80
2023-02-19T21:54:32.789Z,8.53
2023-02-19T21:57:04.433Z,8.48
2023-02-19T21:59:36.094Z,8.43
2023-02-19T22:02:08.851Z,8.69
2023-02-19T22:04:40.550Z,8.48
2023-02-19T22:07:12.697Z,8.44
2023-02-19T22:09:44.282Z,8.33
2023-02-19T22:12:16.704Z,8.29
2023-02-19T22:14:48.314Z,8.31
2023-02-19T22:17:20.465Z,8.30
2023-02-19T22:19:52.205Z,8.28
2023-02-19T22:22:23.799Z,8.22
2023-02-19T22:24:55.397Z,8.07
2023-02-19T22:27:28.666Z,7.98
2023-02-19T22:30:00.946Z,8.13
2023-02-19T22:32:32.528Z,8.38
2023-02-19T22:35:04.218Z,8.39
2023-02-19T22:37:35.861Z,8.43
2023-02-19T22:40:07.946Z,8.48
2023-02-19T22:42:39.628Z,8.61
2023-02-19T22:45:12.017Z,8.40
2023-02-19T22:47:43.714Z,8.44
2023-02-19T22:50:20.409Z,8.20
2023-02-19T22:52:52.207Z,7.97
2023-02-19T22:55:23.753Z,8.28
2023-02-19T22:57:55.315Z,8.59
2023-02-19T23:00:26.909Z,8.63
2023-02-19T23:02:59.632Z,8.71
2023-02-19T23:05:31.248Z,8.30
2023-02-19T23:08:02.947Z,8.31
2023-02-19T23:10:34.505Z,8.22
2023-02-19T23:13:06.212Z,8.40
2023-02-19T23:15:37.845Z,8.07
2023-02-19T23:18:09.442Z,8.32
2023-02-19T23:20:41.340Z,8.22
2023-02-19T23:23:12.909Z,8.47
2023-02-19T23:25:44.531Z,8.75
2023-02-19T23:28:16.154Z,8.81
2023-02-19T23:30:47.906Z,8.73
2023-02-19T23:33:19.497Z,8.93
2023-02-19T23:35:51.305Z,8.42
2023-02-19T23:38:23.058Z,8.73
2023-02-19T23:40:54.676Z,8.69
2023-02-19T23:43:26.439Z,9.15
2023-02-19T23:45:58.046Z,9.10
2023-02-19T23:48:30.161Z,9.01
2023-02-19T23:51:01.782Z,8.86
2023-02-19T23:53:33.393Z,9.09
2023-02-19T23:56:05.682Z,8.99
2023-02-19T23:58:37.341Z,8.69
